This is the latest recevied weather packets stored in our database for station/object EA4IAJ-12. If no packets are shown the sender has not sent any weather packets the latest 10 day(s).
| Time | Temp. | Humidity | Pressure | Rain* | Wind** | Luminosity | Snow |
|---|---|---|---|---|---|---|---|
| 1787704586 | 17.22° C | 79% | 995.2 hPa | - | - | - | - |
| 1787703688 | 17.78° C | 77% | 997.1 hPa | - | - | - | - |
| 1787702779 | 17.78° C | 75% | 997.4 hPa | - | - | - | - |
| 1787701878 | 17.78° C | 73% | 997.2 hPa | - | - | - | - |
| 1787700978 | 18.33° C | 71% | 998.5 hPa | - | - | - | - |
| 1787700077 | 17.78° C | 68% | 997.2 hPa | - | - | - | - |
| 1787699177 | 18.33° C | 66% | 998.3 hPa | - | - | - | - |
| 1787698276 | 18.33° C | 64% | 999.2 hPa | - | - | - | - |
| 1787697376 | 18.89° C | 62% | 999.7 hPa | - | - | - | - |
| 1787696476 | 19.44° C | 61% | 1001.1 hPa | - | - | - | - |
| 1787693788 | 19.44° C | 54% | 1001.9 hPa | - | - | - | - |
| 1787691987 | 20° C | 51% | 1002.5 hPa | - | - | - | - |
| 1787690188 | 21.11° C | 48% | 1006.1 hPa | - | - | - | - |
| 1787689283 | 21.67° C | 47% | 1007.6 hPa | - | - | - | - |
| 1787688382 | 21.67° C | 47% | 1008.9 hPa | - | - | - | - |
| 1787687482 | 22.22° C | 45% | 1009.2 hPa | - | - | - | - |
| 1787686581 | 22.78° C | 45% | 1011.6 hPa | - | - | - | - |
| 1787685681 | 22.78° C | 44% | 1012.4 hPa | - | - | - | - |
| 1787684781 | 23.89° C | 43% | 1015 hPa | - | - | - | - |
| 1787683880 | 23.89° C | 43% | 1016.1 hPa | - | - | - | - |
| 1787682979 | 25° C | 42% | 1018.7 hPa | - | - | - | - |
| 1787682079 | 25.56° C | 42% | 1020.6 hPa | - | - | - | - |
| 1787681178 | 25.56° C | 42% | 1021.9 hPa | - | - | - | - |
| 1787680278 | 26.11° C | 41% | 1023.3 hPa | - | - | - | - |
| 1787679377 | 26.67° C | 41% | 1025.9 hPa | - | - | - | - |
* Rain since midnight (hover to see other rain measurements)
** Current wind speed in m/s (hover to see current wind gust speed)